createdAt,value
2019-03-30T00:00:58.302Z,1020.08
2019-03-30T00:01:58.279Z,1020.08
2019-03-30T00:02:58.267Z,1020.05
2019-03-30T00:03:58.268Z,1020.04
2019-03-30T00:04:58.245Z,1020.05
2019-03-30T00:05:58.233Z,1020.03
2019-03-30T00:06:58.891Z,1020.03
2019-03-30T00:07:58.212Z,1020.02
2019-03-30T00:08:58.406Z,1020.01
2019-03-30T00:09:58.886Z,1020.04
2019-03-30T00:10:58.175Z,1020.06
2019-03-30T00:11:58.891Z,1020.04
2019-03-30T00:12:58.158Z,1019.96
2019-03-30T00:13:58.176Z,1019.96
2019-03-30T00:14:58.139Z,1019.95
2019-03-30T00:15:58.124Z,1019.98
2019-03-30T00:16:58.892Z,1019.97
2019-03-30T00:17:58.103Z,1019.98
2019-03-30T00:18:58.117Z,1019.94
2019-03-30T00:19:58.086Z,1019.96
2019-03-30T00:20:58.077Z,1019.93
2019-03-30T00:21:58.060Z,1019.95
2019-03-30T00:22:58.054Z,1019.94
2019-03-30T00:23:58.066Z,1019.90
2019-03-30T00:24:58.037Z,1019.88
2019-03-30T00:25:58.020Z,1019.95
2019-03-30T00:26:58.007Z,1019.85
2019-03-30T00:27:57.999Z,1019.83
2019-03-30T00:28:58.448Z,1019.90
2019-03-30T00:29:58.896Z,1019.93
2019-03-30T00:30:58.895Z,1019.81
2019-03-30T00:31:57.955Z,1019.87
2019-03-30T00:32:57.943Z,1019.88
2019-03-30T00:33:57.948Z,1019.87
2019-03-30T00:34:58.902Z,1019.85
2019-03-30T00:35:57.934Z,1019.86
2019-03-30T00:36:57.915Z,1019.85
2019-03-30T00:37:57.889Z,1019.84
2019-03-30T00:38:57.889Z,1019.86
2019-03-30T00:39:58.423Z,1019.84
2019-03-30T00:40:57.857Z,1019.82
2019-03-30T00:41:57.851Z,1019.87
2019-03-30T00:42:57.834Z,1019.86
2019-03-30T00:43:57.847Z,1019.74
2019-03-30T00:44:57.847Z,1019.80
2019-03-30T00:45:57.807Z,1019.78
2019-03-30T00:46:58.395Z,1019.79
2019-03-30T00:47:57.775Z,1019.75
2019-03-30T00:48:57.776Z,1019.76
2019-03-30T00:49:57.774Z,1019.73
2019-03-30T00:50:57.745Z,1019.72
2019-03-30T00:51:58.396Z,1019.70
2019-03-30T00:52:57.721Z,1019.73
2019-03-30T00:53:57.904Z,1019.70
2019-03-30T00:54:57.714Z,1019.72
2019-03-30T00:55:57.689Z,1019.72
2019-03-30T00:56:57.688Z,1019.67
2019-03-30T00:57:57.668Z,1019.68
2019-03-30T00:58:57.901Z,1019.67
2019-03-30T00:59:57.658Z,1019.68
2019-03-30T01:00:57.635Z,1019.64
2019-03-30T01:01:58.395Z,1019.63
2019-03-30T01:02:57.612Z,1019.63
2019-03-30T01:03:57.925Z,1019.62
2019-03-30T01:04:57.606Z,1019.60
2019-03-30T01:05:58.368Z,1019.51
2019-03-30T01:06:57.570Z,1019.56
2019-03-30T01:07:57.561Z,1019.53
2019-03-30T01:08:57.908Z,1019.57
2019-03-30T01:09:57.559Z,1019.56
2019-03-30T01:10:58.392Z,1019.54
2019-03-30T01:11:58.392Z,1019.52
2019-03-30T01:12:57.508Z,1019.54
2019-03-30T01:13:57.503Z,1019.46
2019-03-30T01:14:57.496Z,1019.44
2019-03-30T01:15:57.479Z,1019.37
2019-03-30T01:16:57.461Z,1019.49
2019-03-30T01:17:57.451Z,1019.43
2019-03-30T01:18:57.450Z,1019.43
2019-03-30T01:20:03.138Z,1019.41
2019-03-30T01:20:57.434Z,1019.38
2019-03-30T01:21:57.410Z,1019.29
2019-03-30T01:22:57.391Z,1019.36
2019-03-30T01:23:57.402Z,1019.32
2019-03-30T01:24:57.909Z,1019.27
2019-03-30T01:25:57.354Z,1019.34
2019-03-30T01:26:57.346Z,1019.29
2019-03-30T01:27:57.904Z,1019.29
2019-03-30T01:28:57.408Z,1019.35
2019-03-30T01:29:57.330Z,1019.30
2019-03-30T01:30:57.297Z,1019.27
2019-03-30T01:31:57.895Z,1019.27
2019-03-30T01:32:57.290Z,1019.26
2019-03-30T01:33:57.290Z,1019.29
2019-03-30T01:34:57.270Z,1019.29
2019-03-30T01:35:57.254Z,1019.31
2019-03-30T01:36:57.240Z,1019.24
2019-03-30T01:37:57.231Z,1019.30
2019-03-30T01:38:57.233Z,1019.27
2019-03-30T01:39:57.908Z,1019.17
2019-03-30T01:40:57.193Z,1019.24
2019-03-30T01:41:57.179Z,1019.26
2019-03-30T01:42:57.183Z,1019.24
2019-03-30T01:43:57.171Z,1019.23
2019-03-30T01:44:57.156Z,1019.21
2019-03-30T01:45:57.139Z,1019.21
2019-03-30T01:46:57.906Z,1019.21
2019-03-30T01:47:57.135Z,1019.25
2019-03-30T01:48:57.115Z,1019.19
2019-03-30T01:49:57.925Z,1019.20
2019-03-30T01:50:57.085Z,1019.16
2019-03-30T01:51:57.075Z,1019.22
2019-03-30T01:52:57.061Z,1019.19
2019-03-30T01:53:57.205Z,1019.19
2019-03-30T01:54:57.058Z,1019.16
2019-03-30T01:55:57.034Z,1019.15
2019-03-30T01:56:57.016Z,1019.07
2019-03-30T01:57:57.006Z,1019.12
2019-03-30T01:58:56.994Z,1019.13
2019-03-30T01:59:57.420Z,1019.07
2019-03-30T02:00:56.992Z,1019.11
2019-03-30T02:01:56.962Z,1019.11
2019-03-30T02:02:56.950Z,1019.08
2019-03-30T02:03:56.939Z,1019.06
2019-03-30T02:04:56.955Z,1019.06
2019-03-30T02:05:56.948Z,1019.03
2019-03-30T02:06:56.915Z,1019.04
2019-03-30T02:07:57.395Z,1019.04
2019-03-30T02:08:56.889Z,1019.01
2019-03-30T02:09:56.901Z,1019.00
2019-03-30T02:10:56.867Z,1019.02
2019-03-30T02:11:56.857Z,1019.01
2019-03-30T02:12:56.849Z,1019.00
2019-03-30T02:13:56.825Z,1019.02
2019-03-30T02:14:56.852Z,1018.98
2019-03-30T02:15:56.805Z,1018.89
2019-03-30T02:16:57.404Z,1018.96
2019-03-30T02:17:56.791Z,1018.95
2019-03-30T02:18:56.773Z,1018.88
2019-03-30T02:19:56.794Z,1018.87
2019-03-30T02:20:56.768Z,1018.91
2019-03-30T02:21:56.751Z,1018.84
2019-03-30T02:22:57.397Z,1018.86
2019-03-30T02:23:56.734Z,1018.95
2019-03-30T02:24:56.735Z,1018.87
2019-03-30T02:25:56.699Z,1018.80
2019-03-30T02:26:57.398Z,1018.89
2019-03-30T02:27:56.670Z,1018.86
2019-03-30T02:28:56.669Z,1018.77
2019-03-30T02:29:56.867Z,1018.80
2019-03-30T02:30:56.643Z,1018.84
2019-03-30T02:31:56.642Z,1018.82
2019-03-30T02:32:56.618Z,1018.82
2019-03-30T02:33:56.628Z,1018.83
2019-03-30T02:34:56.631Z,1018.88
2019-03-30T02:35:56.619Z,1018.83
2019-03-30T02:36:56.579Z,1018.86
2019-03-30T02:37:56.566Z,1018.79
2019-03-30T02:38:56.555Z,1018.83
2019-03-30T02:39:56.915Z,1018.79
2019-03-30T02:40:56.561Z,1018.73
2019-03-30T02:41:57.403Z,1018.80
2019-03-30T02:42:57.408Z,1018.84
2019-03-30T02:43:56.505Z,1018.79
2019-03-30T02:44:56.507Z,1018.81
2019-03-30T02:45:56.478Z,1018.80
2019-03-30T02:46:56.468Z,1018.78
2019-03-30T02:47:56.461Z,1018.83
2019-03-30T02:48:56.463Z,1018.79
2019-03-30T02:49:56.461Z,1018.77
2019-03-30T02:50:57.415Z,1018.80
2019-03-30T02:51:56.417Z,1018.80
2019-03-30T02:52:56.413Z,1018.80
2019-03-30T02:53:56.400Z,1018.79
2019-03-30T02:54:56.415Z,1018.83
2019-03-30T02:55:56.386Z,1018.67
2019-03-30T02:56:56.902Z,1018.76
2019-03-30T02:57:56.341Z,1018.78
2019-03-30T02:58:56.340Z,1018.71
2019-03-30T02:59:56.332Z,1018.65
2019-03-30T03:00:56.918Z,1018.76
2019-03-30T03:01:56.308Z,1018.75
2019-03-30T03:02:56.291Z,1018.78
2019-03-30T03:03:56.898Z,1018.78
2019-03-30T03:04:56.281Z,1018.74
2019-03-30T03:05:56.271Z,1018.67
2019-03-30T03:06:56.245Z,1018.74
2019-03-30T03:07:56.244Z,1018.67
2019-03-30T03:08:56.224Z,1018.69
2019-03-30T03:09:56.224Z,1018.68
2019-03-30T03:10:56.211Z,1018.67
2019-03-30T03:11:56.905Z,1018.61
2019-03-30T03:12:56.183Z,1018.73
2019-03-30T03:13:56.169Z,1018.66
2019-03-30T03:14:56.413Z,1018.66
2019-03-30T03:15:56.161Z,1018.62
2019-03-30T03:16:56.139Z,1018.57
2019-03-30T03:17:56.128Z,1018.58
2019-03-30T03:18:56.114Z,1018.61
2019-03-30T03:19:56.121Z,1018.55
2019-03-30T03:21:07.329Z,1018.55
2019-03-30T03:21:56.090Z,1018.56
2019-03-30T03:22:56.070Z,1018.57
2019-03-30T03:23:56.924Z,1018.55
2019-03-30T03:24:56.066Z,1018.56
2019-03-30T03:25:56.046Z,1018.56
2019-03-30T03:26:56.901Z,1018.56
2019-03-30T03:27:56.020Z,1018.59
2019-03-30T03:28:56.905Z,1018.49
2019-03-30T03:29:56.007Z,1018.46
2019-03-30T03:30:55.986Z,1018.53
2019-03-30T03:31:55.977Z,1018.47
2019-03-30T03:32:55.963Z,1018.50
2019-03-30T03:33:55.965Z,1018.41
2019-03-30T03:34:55.970Z,1018.43
2019-03-30T03:35:56.906Z,1018.50
2019-03-30T03:36:55.932Z,1018.51
2019-03-30T03:37:55.904Z,1018.48
2019-03-30T03:38:55.893Z,1018.46
2019-03-30T03:39:55.920Z,1018.45
2019-03-30T03:40:55.888Z,1018.37
2019-03-30T03:41:55.863Z,1018.47
2019-03-30T03:42:55.852Z,1018.47
2019-03-30T03:43:56.405Z,1018.46
2019-03-30T03:44:55.856Z,1018.44
2019-03-30T03:45:55.815Z,1018.43
2019-03-30T03:46:56.412Z,1018.35
2019-03-30T03:47:55.795Z,1018.39
2019-03-30T03:48:55.783Z,1018.39
2019-03-30T03:49:55.782Z,1018.39
2019-03-30T03:50:55.764Z,1018.36
2019-03-30T03:51:55.752Z,1018.43
2019-03-30T03:52:55.736Z,1018.40
2019-03-30T03:53:55.738Z,1018.32
2019-03-30T03:54:55.925Z,1018.42
2019-03-30T03:55:56.428Z,1018.39
2019-03-30T03:56:55.704Z,1018.32
2019-03-30T03:57:55.679Z,1018.38
2019-03-30T03:58:55.683Z,1018.35
2019-03-30T03:59:55.676Z,1018.32
2019-03-30T04:00:55.653Z,1018.33
2019-03-30T04:01:55.643Z,1018.34
2019-03-30T04:02:55.629Z,1018.32
2019-03-30T04:03:56.419Z,1018.30
2019-03-30T04:04:55.651Z,1018.31
2019-03-30T04:05:55.609Z,1018.31
2019-03-30T04:06:55.589Z,1018.28
2019-03-30T04:07:55.572Z,1018.25
2019-03-30T04:08:56.406Z,1018.19
2019-03-30T04:09:55.559Z,1018.24
2019-03-30T04:10:55.561Z,1018.21
2019-03-30T04:11:56.406Z,1018.22
2019-03-30T04:12:55.523Z,1018.15
2019-03-30T04:13:56.403Z,1018.21
2019-03-30T04:14:55.513Z,1018.18
2019-03-30T04:15:56.422Z,1018.22
2019-03-30T04:16:55.478Z,1018.13
2019-03-30T04:17:56.413Z,1018.17
2019-03-30T04:18:55.459Z,1018.16
2019-03-30T04:19:55.461Z,1018.17
2019-03-30T04:20:55.437Z,1018.19
2019-03-30T04:21:55.423Z,1018.11
2019-03-30T04:22:55.407Z,1018.12
2019-03-30T04:23:55.541Z,1018.18
2019-03-30T04:24:55.413Z,1018.19
2019-03-30T04:25:55.921Z,1018.18
2019-03-30T04:26:55.362Z,1018.19
2019-03-30T04:27:55.367Z,1018.15
2019-03-30T04:28:55.916Z,1018.08
2019-03-30T04:29:55.434Z,1018.17
2019-03-30T04:30:55.439Z,1018.13
2019-03-30T04:31:55.311Z,1018.13
2019-03-30T04:32:55.309Z,1018.11
2019-03-30T04:33:55.290Z,1018.12
2019-03-30T04:34:55.303Z,1018.12
2019-03-30T04:35:55.283Z,1018.11
2019-03-30T04:36:55.253Z,1018.07
2019-03-30T04:37:55.913Z,1018.03
2019-03-30T04:38:55.913Z,1018.05
2019-03-30T04:39:55.233Z,1018.04
2019-03-30T04:40:55.230Z,1018.02
2019-03-30T04:41:55.202Z,1018.04
2019-03-30T04:42:55.190Z,1018.06
2019-03-30T04:43:55.184Z,1018.04
2019-03-30T04:44:55.168Z,1018.05
2019-03-30T04:45:55.427Z,1018.03
2019-03-30T04:46:55.150Z,1017.94
2019-03-30T04:47:55.140Z,1018.03
2019-03-30T04:48:55.128Z,1018.00
2019-03-30T04:49:55.126Z,1018.01
2019-03-30T04:50:55.108Z,1017.94
2019-03-30T04:51:57.747Z,1017.94
2019-03-30T04:52:55.907Z,1017.93
2019-03-30T04:53:55.069Z,1017.98
2019-03-30T04:54:55.056Z,1017.97
2019-03-30T04:55:55.059Z,1017.98
2019-03-30T04:56:55.037Z,1017.93
2019-03-30T04:57:57.949Z,1018.00
2019-03-30T04:58:55.023Z,1017.91
2019-03-30T04:59:55.004Z,1017.93
2019-03-30T05:00:55.007Z,1017.94
2019-03-30T05:01:54.984Z,1017.91
2019-03-30T05:02:54.966Z,1017.91
2019-03-30T05:03:54.960Z,1017.93
2019-03-30T05:04:54.945Z,1017.90
2019-03-30T05:05:55.425Z,1017.90
2019-03-30T05:06:54.927Z,1017.91
2019-03-30T05:07:54.926Z,1017.93
2019-03-30T05:08:54.906Z,1017.91
2019-03-30T05:09:54.890Z,1017.92
2019-03-30T05:10:54.926Z,1017.93
2019-03-30T05:11:54.891Z,1017.86
2019-03-30T05:12:54.860Z,1017.87
2019-03-30T05:13:55.414Z,1017.86
2019-03-30T05:14:54.836Z,1017.84
2019-03-30T05:15:54.929Z,1017.89
2019-03-30T05:16:54.819Z,1017.84
2019-03-30T05:17:54.806Z,1017.87
2019-03-30T05:18:54.835Z,1017.87
2019-03-30T05:19:54.790Z,1017.85
2019-03-30T05:20:54.936Z,1017.90
2019-03-30T05:21:55.426Z,1017.86
2019-03-30T05:22:54.763Z,1017.88
2019-03-30T05:23:54.740Z,1017.84
2019-03-30T05:24:54.739Z,1017.79
2019-03-30T05:25:54.728Z,1017.83
2019-03-30T05:26:55.428Z,1017.80
2019-03-30T05:27:54.701Z,1017.81
2019-03-30T05:28:55.414Z,1017.80
2019-03-30T05:29:54.680Z,1017.80
2019-03-30T05:30:54.674Z,1017.81
2019-03-30T05:31:54.677Z,1017.82
2019-03-30T05:33:05.583Z,1017.82
2019-03-30T05:33:54.642Z,1017.79
2019-03-30T05:34:54.636Z,1017.77
2019-03-30T05:35:54.634Z,1017.81
2019-03-30T05:36:54.611Z,1017.84
2019-03-30T05:37:55.415Z,1017.78
2019-03-30T05:38:54.593Z,1017.78
2019-03-30T05:39:54.573Z,1017.79
2019-03-30T05:40:54.599Z,1017.78
2019-03-30T05:41:54.553Z,1017.70
2019-03-30T05:42:55.414Z,1017.72
2019-03-30T05:43:54.535Z,1017.76
2019-03-30T05:44:57.636Z,1017.76
2019-03-30T05:45:54.534Z,1017.81
2019-03-30T05:46:54.512Z,1017.77
2019-03-30T05:47:54.498Z,1017.73
2019-03-30T05:48:54.477Z,1017.76
2019-03-30T05:49:54.467Z,1017.72
2019-03-30T05:50:54.928Z,1017.70
2019-03-30T05:51:55.426Z,1017.74
2019-03-30T05:52:54.439Z,1017.66
2019-03-30T05:53:54.429Z,1017.70
2019-03-30T05:54:54.412Z,1017.72
2019-03-30T05:55:54.426Z,1017.71
2019-03-30T05:56:54.408Z,1017.69
2019-03-30T05:57:54.383Z,1017.75
2019-03-30T05:58:54.378Z,1017.71
2019-03-30T05:59:56.069Z,1017.71
2019-03-30T06:00:54.362Z,1017.73
2019-03-30T06:01:54.919Z,1017.66
2019-03-30T06:02:54.329Z,1017.69
2019-03-30T06:03:54.318Z,1017.68
2019-03-30T06:04:54.307Z,1017.69
2019-03-30T06:05:54.442Z,1017.69
2019-03-30T06:06:54.291Z,1017.65
2019-03-30T06:07:54.275Z,1017.67
2019-03-30T06:08:54.270Z,1017.68
2019-03-30T06:09:54.259Z,1017.65
2019-03-30T06:10:54.273Z,1017.64
2019-03-30T06:11:54.246Z,1017.70
2019-03-30T06:12:54.222Z,1017.68
2019-03-30T06:13:54.212Z,1017.64
2019-03-30T06:14:54.940Z,1017.63
2019-03-30T06:15:54.207Z,1017.57
2019-03-30T06:16:54.194Z,1017.60
2019-03-30T06:17:54.166Z,1017.55
2019-03-30T06:18:54.159Z,1017.59
2019-03-30T06:19:54.149Z,1017.60
2019-03-30T06:20:54.145Z,1017.51
2019-03-30T06:21:54.148Z,1017.65
2019-03-30T06:22:54.915Z,1017.62
2019-03-30T06:23:54.106Z,1017.57
2019-03-30T06:24:54.096Z,1017.54
2019-03-30T06:25:54.430Z,1017.55
2019-03-30T06:26:54.114Z,1017.54
2019-03-30T06:27:54.063Z,1017.52
2019-03-30T06:28:54.060Z,1017.49
2019-03-30T06:29:54.040Z,1017.51
2019-03-30T06:30:54.043Z,1017.51
2019-03-30T06:31:54.049Z,1017.45
2019-03-30T06:32:54.915Z,1017.50
2019-03-30T06:33:54.922Z,1017.41
2019-03-30T06:34:54.923Z,1017.52
2019-03-30T06:35:53.997Z,1017.49
2019-03-30T06:36:53.986Z,1017.55
2019-03-30T06:37:54.920Z,1017.54
2019-03-30T06:38:53.946Z,1017.60
2019-03-30T06:39:53.938Z,1017.53
2019-03-30T06:40:53.931Z,1017.57
2019-03-30T06:41:53.912Z,1017.58
2019-03-30T06:42:54.432Z,1017.57
2019-03-30T06:43:53.889Z,1017.59
2019-03-30T06:44:53.884Z,1017.58
2019-03-30T06:45:53.880Z,1017.55
2019-03-30T06:46:53.857Z,1017.60
2019-03-30T06:47:54.429Z,1017.57
2019-03-30T06:48:53.847Z,1017.59
2019-03-30T06:49:53.828Z,1017.59
2019-03-30T06:50:53.836Z,1017.61
2019-03-30T06:51:53.812Z,1017.58
2019-03-30T06:52:57.834Z,1017.60
2019-03-30T06:53:53.789Z,1017.55
2019-03-30T06:54:54.418Z,1017.57
2019-03-30T06:55:53.934Z,1017.55
2019-03-30T06:56:53.749Z,1017.53
2019-03-30T06:57:53.756Z,1017.56
2019-03-30T06:58:53.733Z,1017.56
2019-03-30T06:59:53.730Z,1017.57
2019-03-30T07:00:53.931Z,1017.56
2019-03-30T07:01:54.419Z,1017.59
2019-03-30T07:02:53.700Z,1017.58
2019-03-30T07:03:53.674Z,1017.65
2019-03-30T07:04:53.667Z,1017.61
2019-03-30T07:05:53.671Z,1017.65
2019-03-30T07:06:53.642Z,1017.66
2019-03-30T07:07:54.430Z,1017.65
2019-03-30T07:08:53.628Z,1017.68
2019-03-30T07:09:53.609Z,1017.65
2019-03-30T07:10:53.614Z,1017.71
2019-03-30T07:11:53.589Z,1017.69
2019-03-30T07:12:53.595Z,1017.73
2019-03-30T07:13:53.565Z,1017.71
2019-03-30T07:14:53.553Z,1017.68
2019-03-30T07:15:53.551Z,1017.68
2019-03-30T07:16:53.532Z,1017.68
2019-03-30T07:17:53.548Z,1017.67
2019-03-30T07:18:53.517Z,1017.65
2019-03-30T07:19:53.500Z,1017.71
2019-03-30T07:20:53.500Z,1017.72
2019-03-30T07:21:53.486Z,1017.68
2019-03-30T07:22:53.484Z,1017.66
2019-03-30T07:23:53.457Z,1017.70
2019-03-30T07:24:53.443Z,1017.72
2019-03-30T07:25:53.444Z,1017.62
2019-03-30T07:26:53.426Z,1017.65
2019-03-30T07:27:53.947Z,1017.68
2019-03-30T07:28:53.403Z,1017.66
2019-03-30T07:29:53.392Z,1017.64
2019-03-30T07:30:53.401Z,1017.64
2019-03-30T07:31:53.371Z,1017.66
2019-03-30T07:32:53.360Z,1017.71
2019-03-30T07:33:53.352Z,1017.66
2019-03-30T07:34:53.355Z,1017.71
2019-03-30T07:35:53.351Z,1017.67
2019-03-30T07:36:53.330Z,1017.68
2019-03-30T07:37:53.319Z,1017.70
2019-03-30T07:38:53.298Z,1017.62
2019-03-30T07:39:53.287Z,1017.62
2019-03-30T07:40:53.283Z,1017.67
2019-03-30T07:41:53.278Z,1017.71
2019-03-30T07:42:53.264Z,1017.67
2019-03-30T07:43:53.247Z,1017.69
2019-03-30T07:44:53.921Z,1017.72
2019-03-30T07:45:53.233Z,1017.72
2019-03-30T07:46:53.222Z,1017.68
2019-03-30T07:47:53.213Z,1017.67
2019-03-30T07:48:53.186Z,1017.64
2019-03-30T07:49:53.176Z,1017.66
2019-03-30T07:50:53.170Z,1017.72
2019-03-30T07:51:53.168Z,1017.71
2019-03-30T07:52:53.160Z,1017.68
2019-03-30T07:53:53.146Z,1017.66
2019-03-30T07:54:53.924Z,1017.75
2019-03-30T07:55:53.114Z,1017.72
2019-03-30T07:57:04.190Z,1017.75
2019-03-30T07:57:53.160Z,1017.76
2019-03-30T07:58:53.925Z,1017.76
2019-03-30T07:59:53.071Z,1017.78
2019-03-30T08:00:53.061Z,1017.80
2019-03-30T08:01:53.063Z,1017.80
2019-03-30T08:02:53.065Z,1017.79
2019-03-30T08:03:53.025Z,1017.79
2019-03-30T08:04:53.019Z,1017.82
2019-03-30T08:05:54.498Z,1017.84
2019-03-30T08:06:53.011Z,1017.81
2019-03-30T08:07:52.986Z,1017.74
2019-03-30T08:08:52.994Z,1017.81
2019-03-30T08:09:52.967Z,1017.78
2019-03-30T08:10:52.959Z,1017.74
2019-03-30T08:11:53.440Z,1017.77
2019-03-30T08:12:52.937Z,1017.83
2019-03-30T08:13:52.929Z,1017.80
2019-03-30T08:14:53.431Z,1017.79
2019-03-30T08:15:52.898Z,1017.74
2019-03-30T08:16:52.950Z,1017.77
2019-03-30T08:17:52.878Z,1017.73
2019-03-30T08:18:52.880Z,1017.70
2019-03-30T08:19:52.868Z,1017.68
2019-03-30T08:20:52.850Z,1017.74
2019-03-30T08:21:52.859Z,1017.74
2019-03-30T08:22:52.836Z,1017.72
2019-03-30T08:23:52.828Z,1017.72
2019-03-30T08:24:53.422Z,1017.71
2019-03-30T08:25:52.798Z,1017.72
2019-03-30T08:26:52.796Z,1017.81
2019-03-30T08:27:52.800Z,1017.75
2019-03-30T08:28:52.770Z,1017.81
2019-03-30T08:29:52.797Z,1017.78
2019-03-30T08:30:52.740Z,1017.79
2019-03-30T08:31:52.935Z,1017.78
2019-03-30T08:32:52.730Z,1017.84
2019-03-30T08:33:52.716Z,1017.81
2019-03-30T08:34:52.694Z,1017.81
2019-03-30T08:35:52.685Z,1017.75
2019-03-30T08:36:52.934Z,1017.77
2019-03-30T08:37:52.663Z,1017.75
2019-03-30T08:38:52.664Z,1017.79
2019-03-30T08:39:52.641Z,1017.78
2019-03-30T08:40:52.630Z,1017.75
2019-03-30T08:41:52.633Z,1017.74
2019-03-30T08:42:52.609Z,1017.76
2019-03-30T08:43:52.611Z,1017.75
2019-03-30T08:44:52.591Z,1017.70
2019-03-30T08:45:52.575Z,1017.76
2019-03-30T08:46:52.570Z,1017.74
2019-03-30T08:47:52.552Z,1017.74
2019-03-30T08:48:52.570Z,1017.74
2019-03-30T08:49:52.534Z,1017.68
2019-03-30T08:50:52.521Z,1017.69
2019-03-30T08:51:52.522Z,1017.67
2019-03-30T08:52:52.504Z,1017.69
2019-03-30T08:53:54.891Z,1017.68
2019-03-30T08:54:53.445Z,1017.72
2019-03-30T08:55:52.476Z,1017.67
2019-03-30T08:56:52.485Z,1017.66
2019-03-30T08:57:52.450Z,1017.66
2019-03-30T08:58:52.442Z,1017.66
2019-03-30T08:59:52.947Z,1017.67
2019-03-30T09:00:52.423Z,1017.65
2019-03-30T09:01:52.444Z,1017.68
2019-03-30T09:02:52.395Z,1017.66
2019-03-30T09:03:52.384Z,1017.68
2019-03-30T09:04:52.935Z,1017.68
2019-03-30T09:05:52.373Z,1017.66
2019-03-30T09:06:52.375Z,1017.68
2019-03-30T09:07:52.344Z,1017.69
2019-03-30T09:08:52.927Z,1017.68
2019-03-30T09:09:52.337Z,1017.60
2019-03-30T09:10:52.310Z,1017.63
2019-03-30T09:11:52.310Z,1017.59
2019-03-30T09:12:52.297Z,1017.66
2019-03-30T09:13:52.280Z,1017.62
2019-03-30T09:14:52.280Z,1017.61
2019-03-30T09:15:52.255Z,1017.59
2019-03-30T09:16:52.260Z,1017.60
2019-03-30T09:17:52.928Z,1017.58
2019-03-30T09:18:52.226Z,1017.56
2019-03-30T09:19:52.234Z,1017.59
2019-03-30T09:20:52.203Z,1017.50
2019-03-30T09:21:52.206Z,1017.53
2019-03-30T09:22:52.181Z,1017.52
2019-03-30T09:23:52.172Z,1017.47
2019-03-30T09:24:52.176Z,1017.46
2019-03-30T09:25:52.157Z,1017.52
2019-03-30T09:26:52.446Z,1017.53
2019-03-30T09:27:52.131Z,1017.51
2019-03-30T09:28:52.119Z,1017.53
2019-03-30T09:29:52.119Z,1017.51
2019-03-30T09:30:52.096Z,1017.52
2019-03-30T09:31:52.098Z,1017.53
2019-03-30T09:32:52.076Z,1017.50
2019-03-30T09:33:52.071Z,1017.48
2019-03-30T09:34:52.067Z,1017.47
2019-03-30T09:35:52.040Z,1017.48
2019-03-30T09:36:52.581Z,1017.45
2019-03-30T09:37:52.024Z,1017.50
2019-03-30T09:38:52.929Z,1017.52
2019-03-30T09:39:52.015Z,1017.53
2019-03-30T09:40:52.929Z,1017.47
2019-03-30T09:41:52.443Z,1017.43
2019-03-30T09:42:51.971Z,1017.43
2019-03-30T09:43:52.929Z,1017.46
2019-03-30T09:44:51.960Z,1017.45
2019-03-30T09:45:52.935Z,1017.43
2019-03-30T09:46:51.945Z,1017.45
2019-03-30T09:47:51.922Z,1017.49
2019-03-30T09:48:51.903Z,1017.44
2019-03-30T09:49:51.906Z,1017.48
2019-03-30T09:50:52.428Z,1017.43
2019-03-30T09:51:51.879Z,1017.43
2019-03-30T09:52:51.861Z,1017.42
2019-03-30T09:53:52.429Z,1017.45
2019-03-30T09:54:51.863Z,1017.41
2019-03-30T09:55:51.828Z,1017.40
2019-03-30T09:56:51.825Z,1017.39
2019-03-30T09:57:52.430Z,1017.43
2019-03-30T09:58:51.796Z,1017.41
2019-03-30T09:59:51.804Z,1017.37
2019-03-30T10:00:51.780Z,1017.41
2019-03-30T10:01:51.951Z,1017.42
2019-03-30T10:02:51.747Z,1017.42
2019-03-30T10:03:51.737Z,1017.38
2019-03-30T10:04:51.738Z,1017.40
2019-03-30T10:05:52.433Z,1017.36
2019-03-30T10:06:51.717Z,1017.40
2019-03-30T10:07:51.690Z,1017.35
2019-03-30T10:08:51.683Z,1017.35
2019-03-30T10:09:51.685Z,1017.36
2019-03-30T10:10:52.430Z,1017.39
2019-03-30T10:11:51.658Z,1017.35
2019-03-30T10:12:51.639Z,1017.38
2019-03-30T10:13:51.631Z,1017.36
2019-03-30T10:14:51.628Z,1017.36
2019-03-30T10:15:51.604Z,1017.40
2019-03-30T10:16:51.636Z,1017.39
2019-03-30T10:17:51.588Z,1017.31
2019-03-30T10:18:51.574Z,1017.31
2019-03-30T10:20:03.504Z,1017.31
2019-03-30T10:20:51.549Z,1017.28
2019-03-30T10:21:51.550Z,1017.25
2019-03-30T10:22:51.532Z,1017.27
2019-03-30T10:23:51.518Z,1017.28
2019-03-30T10:24:52.451Z,1017.21
2019-03-30T10:25:51.497Z,1017.24
2019-03-30T10:26:51.483Z,1017.23
2019-03-30T10:27:51.945Z,1017.15
2019-03-30T10:28:51.462Z,1017.07
2019-03-30T10:29:51.460Z,1017.16
2019-03-30T10:30:52.433Z,1017.07
2019-03-30T10:31:51.430Z,1017.13
2019-03-30T10:32:51.425Z,1017.09
2019-03-30T10:33:51.933Z,1017.16
2019-03-30T10:34:51.417Z,1017.14
2019-03-30T10:35:51.962Z,1017.15
2019-03-30T10:36:51.382Z,1017.11
2019-03-30T10:37:51.443Z,1017.09
2019-03-30T10:38:51.353Z,1017.09
2019-03-30T10:39:51.347Z,1017.09
2019-03-30T10:40:51.329Z,1017.08
2019-03-30T10:41:51.323Z,1017.09
2019-03-30T10:42:51.443Z,1017.04
2019-03-30T10:43:51.298Z,1017.08
2019-03-30T10:44:51.286Z,1017.05
2019-03-30T10:45:51.279Z,1017.10
2019-03-30T10:46:51.263Z,1017.06
2019-03-30T10:47:51.445Z,1017.03
2019-03-30T10:48:51.240Z,1017.06
2019-03-30T10:49:51.230Z,1017.01
2019-03-30T10:50:51.216Z,1017.08
2019-03-30T10:51:54.204Z,1017.02
2019-03-30T10:52:51.207Z,1017.01
2019-03-30T10:53:51.187Z,1016.95
2019-03-30T10:54:53.024Z,1016.99
2019-03-30T10:55:51.164Z,1016.96
2019-03-30T10:56:51.155Z,1016.98
2019-03-30T10:57:51.176Z,1016.93
2019-03-30T10:58:51.134Z,1016.88
2019-03-30T10:59:51.122Z,1016.90
2019-03-30T11:00:51.125Z,1016.88
2019-03-30T11:01:51.099Z,1016.86
2019-03-30T11:02:51.097Z,1016.88
2019-03-30T11:03:51.076Z,1016.87
2019-03-30T11:04:51.064Z,1016.82
2019-03-30T11:05:51.066Z,1016.83
2019-03-30T11:06:51.043Z,1016.81
2019-03-30T11:07:51.455Z,1016.82
2019-03-30T11:08:51.038Z,1016.82
2019-03-30T11:09:51.014Z,1016.86
2019-03-30T11:10:51.946Z,1016.82
2019-03-30T11:11:50.990Z,1016.81
2019-03-30T11:12:50.997Z,1016.76
2019-03-30T11:13:50.968Z,1016.76
2019-03-30T11:14:50.963Z,1016.77
2019-03-30T11:15:51.937Z,1016.70
2019-03-30T11:16:50.935Z,1016.73
2019-03-30T11:17:50.935Z,1016.74
2019-03-30T11:18:50.912Z,1016.72
2019-03-30T11:19:50.906Z,1016.75
2019-03-30T11:20:50.887Z,1016.70
2019-03-30T11:21:50.881Z,1016.73
2019-03-30T11:22:50.951Z,1016.70
2019-03-30T11:23:50.854Z,1016.73
2019-03-30T11:24:50.845Z,1016.75
2019-03-30T11:25:50.833Z,1016.70
2019-03-30T11:26:50.822Z,1016.72
2019-03-30T11:27:50.838Z,1016.74
2019-03-30T11:28:50.801Z,1016.64
2019-03-30T11:29:50.786Z,1016.72
2019-03-30T11:30:51.431Z,1016.68
2019-03-30T11:31:50.769Z,1016.68
2019-03-30T11:32:50.946Z,1016.70
2019-03-30T11:33:50.747Z,1016.67
2019-03-30T11:34:50.738Z,1016.65
2019-03-30T11:35:50.734Z,1016.61
2019-03-30T11:36:50.715Z,1016.64
2019-03-30T11:37:50.955Z,1016.64
2019-03-30T11:38:50.701Z,1016.63
2019-03-30T11:39:50.681Z,1016.66
2019-03-30T11:40:50.673Z,1016.60
2019-03-30T11:41:50.654Z,1016.65
2019-03-30T11:42:50.655Z,1016.62
2019-03-30T11:43:50.633Z,1016.58
2019-03-30T11:44:51.437Z,1016.58
2019-03-30T11:45:50.612Z,1016.63
2019-03-30T11:46:50.607Z,1016.54
2019-03-30T11:47:50.612Z,1016.52
2019-03-30T11:48:51.440Z,1016.51
2019-03-30T11:49:51.440Z,1016.46
2019-03-30T11:50:50.554Z,1016.51
2019-03-30T11:51:50.545Z,1016.50
2019-03-30T11:52:50.956Z,1016.47
2019-03-30T11:53:51.450Z,1016.52
2019-03-30T11:54:51.439Z,1016.46
2019-03-30T11:55:50.503Z,1016.48
2019-03-30T11:56:51.446Z,1016.50
2019-03-30T11:57:50.512Z,1016.47
2019-03-30T11:58:50.477Z,1016.45
2019-03-30T11:59:50.465Z,1016.44
2019-03-30T12:00:50.464Z,1016.45
2019-03-30T12:01:50.441Z,1016.43
2019-03-30T12:02:50.442Z,1016.40
2019-03-30T12:03:50.416Z,1016.35
2019-03-30T12:04:50.416Z,1016.34
2019-03-30T12:05:50.410Z,1016.35